createdAt,value
2023-03-20T00:02:08.421Z,94944.16
2023-03-20T00:04:35.376Z,94938.28
2023-03-20T00:07:03.760Z,94943.75
2023-03-20T00:09:31.404Z,94942.69
2023-03-20T00:11:58.444Z,94946.94
2023-03-20T00:14:26.278Z,94950.97
2023-03-20T00:16:53.371Z,94951.75
2023-03-20T00:19:27.505Z,94946.72
2023-03-20T00:21:55.614Z,94949.09
2023-03-20T00:24:23.534Z,94947.06
2023-03-20T00:26:52.618Z,94954.72
2023-03-20T00:29:27.826Z,94941.75
2023-03-20T00:31:55.831Z,94945.41
2023-03-20T00:34:27.180Z,94953.63
2023-03-20T00:36:54.961Z,94949.78
2023-03-20T00:39:22.195Z,94946.94
2023-03-20T00:41:58.466Z,94959.97
2023-03-20T00:44:35.418Z,94944.00
2023-03-20T00:47:18.777Z,94942.59
2023-03-20T00:49:49.916Z,94946.00
2023-03-20T00:52:19.714Z,94946.19
2023-03-20T00:54:46.881Z,94952.44
2023-03-20T00:57:30.032Z,94946.56
2023-03-20T01:00:06.909Z,94957.88
2023-03-20T01:02:34.120Z,94945.75
2023-03-20T01:05:02.159Z,94952.44
2023-03-20T01:07:29.173Z,94952.44
2023-03-20T01:09:56.211Z,94944.38
2023-03-20T01:12:23.821Z,94951.88
2023-03-20T01:14:56.947Z,94954.50
2023-03-20T01:17:26.299Z,94950.28
2023-03-20T01:19:53.351Z,94951.13
2023-03-20T01:22:20.565Z,94953.97
2023-03-20T01:24:47.832Z,94949.16
2023-03-20T01:27:20.404Z,94949.94
2023-03-20T01:29:48.202Z,94946.16
2023-03-20T01:32:19.186Z,94941.47
2023-03-20T01:34:49.536Z,94944.72
2023-03-20T01:37:27.484Z,94945.91
2023-03-20T01:39:57.851Z,94946.09
2023-03-20T01:42:25.905Z,94941.84
2023-03-20T01:44:52.891Z,94950.72
2023-03-20T01:47:24.096Z,94943.63
2023-03-20T01:50:31.536Z,94948.44
2023-03-20T01:53:27.644Z,94945.81
2023-03-20T01:56:00.837Z,94946.84
2023-03-20T01:58:41.956Z,94957.47
2023-03-20T02:01:11.636Z,94950.88
2023-03-20T02:03:43.251Z,94955.09
2023-03-20T02:06:17.426Z,94947.88
2023-03-20T02:09:13.765Z,94954.09
2023-03-20T02:11:46.907Z,94950.69
2023-03-20T02:14:15.855Z,94940.19
2023-03-20T02:16:57.179Z,94945.81
2023-03-20T02:20:05.295Z,94945.00
2023-03-20T02:23:09.675Z,94949.63
2023-03-20T02:26:17.385Z,94950.81
2023-03-20T02:29:28.537Z,94959.88
2023-03-20T02:32:11.788Z,94956.88
2023-03-20T02:35:06.793Z,94952.25
2023-03-20T02:37:51.644Z,94956.13
2023-03-20T02:40:56.995Z,94952.09
2023-03-20T02:43:44.023Z,94953.94
2023-03-20T02:46:39.685Z,94947.06
2023-03-20T02:49:26.818Z,94952.75
2023-03-20T02:52:44.005Z,94945.03
2023-03-20T02:55:18.826Z,94953.75
2023-03-20T02:58:21.445Z,94953.34
2023-03-20T03:01:02.001Z,94950.72
2023-03-20T03:03:39.928Z,94954.16
2023-03-20T03:06:32.616Z,94958.59
2023-03-20T03:09:17.748Z,94952.53
2023-03-20T03:11:59.097Z,94954.53
2023-03-20T03:14:41.688Z,94961.59
2023-03-20T03:17:15.536Z,94950.69
2023-03-20T03:19:49.502Z,94959.78
2023-03-20T03:22:17.387Z,94947.22
2023-03-20T03:24:51.283Z,94957.13
2023-03-20T03:27:43.234Z,94961.38
2023-03-20T03:30:28.651Z,94962.13
2023-03-20T03:33:17.104Z,94952.44
2023-03-20T03:35:46.281Z,94948.59
2023-03-20T03:38:56.464Z,94960.41
2023-03-20T03:41:42.516Z,94971.63
2023-03-20T03:44:20.391Z,94967.53
2023-03-20T03:46:57.354Z,94974.59
2023-03-20T03:49:36.730Z,94963.03
2023-03-20T03:52:09.285Z,94977.50
2023-03-20T03:55:05.432Z,94973.22
2023-03-20T03:57:40.394Z,94978.81
2023-03-20T04:00:14.360Z,94976.94
2023-03-20T04:02:47.502Z,94978.66
2023-03-20T04:05:17.144Z,94980.06
2023-03-20T04:07:53.557Z,94976.34
2023-03-20T04:10:20.686Z,94984.75
2023-03-20T04:12:47.680Z,94972.41
2023-03-20T04:15:16.782Z,94978.38
2023-03-20T04:17:44.733Z,94978.91
2023-03-20T04:20:14.712Z,94976.03
2023-03-20T04:22:42.040Z,94975.97
2023-03-20T04:25:24.037Z,94978.16
2023-03-20T04:27:53.933Z,94980.84
2023-03-20T04:30:48.116Z,94980.59
2023-03-20T04:33:22.652Z,94981.13
2023-03-20T04:36:12.555Z,94986.25
2023-03-20T04:38:40.645Z,94991.69
2023-03-20T04:41:08.815Z,94983.75
2023-03-20T04:43:36.217Z,94993.41
2023-03-20T04:46:03.942Z,95000.78
2023-03-20T04:48:31.317Z,94989.97
2023-03-20T04:50:58.802Z,94989.59
2023-03-20T04:53:37.502Z,94998.53
2023-03-20T04:56:05.438Z,94993.97
2023-03-20T04:58:36.632Z,94999.44
2023-03-20T05:01:04.377Z,95004.50
2023-03-20T05:03:31.294Z,95006.75
2023-03-20T05:05:59.343Z,95005.78
2023-03-20T05:08:26.368Z,95006.75
2023-03-20T05:10:57.493Z,95007.22
2023-03-20T05:13:54.661Z,95012.81
2023-03-20T05:16:33.028Z,95013.97
2023-03-20T05:19:17.161Z,95017.41
2023-03-20T05:21:57.945Z,95019.41
2023-03-20T05:24:39.783Z,95023.00
2023-03-20T05:27:14.384Z,95018.13
2023-03-20T05:30:04.791Z,95027.59
2023-03-20T05:32:52.579Z,95016.31
2023-03-20T05:35:28.546Z,95028.44
2023-03-20T05:38:25.878Z,95035.91
2023-03-20T05:41:18.872Z,95031.38
2023-03-20T05:44:02.373Z,95030.59
2023-03-20T05:46:47.742Z,95030.75
2023-03-20T05:49:21.580Z,95027.31
2023-03-20T05:51:54.260Z,95029.31
2023-03-20T05:54:31.774Z,95022.44
2023-03-20T05:57:25.006Z,95027.69
2023-03-20T05:59:51.944Z,95032.28
2023-03-20T06:02:47.208Z,95030.94
2023-03-20T06:05:35.892Z,95031.91
2023-03-20T06:08:03.733Z,95040.41
2023-03-20T06:10:30.839Z,95046.75
2023-03-20T06:13:00.981Z,95047.81
2023-03-20T06:15:29.342Z,95041.84
2023-03-20T06:18:04.057Z,95052.44
2023-03-20T06:20:31.627Z,95045.03
2023-03-20T06:23:01.606Z,95048.16
2023-03-20T06:25:28.851Z,95051.69
2023-03-20T06:27:55.985Z,95052.25
2023-03-20T06:30:22.990Z,95049.50
2023-03-20T06:32:51.067Z,95055.91
2023-03-20T06:35:21.067Z,95054.78
2023-03-20T06:37:50.634Z,95057.31
2023-03-20T06:40:22.838Z,95056.03
2023-03-20T06:42:50.279Z,95058.97
2023-03-20T06:45:18.510Z,95062.28
2023-03-20T06:47:47.163Z,95060.56
2023-03-20T06:50:14.885Z,95061.69
2023-03-20T06:52:42.808Z,95064.81
2023-03-20T06:55:31.729Z,95062.06
2023-03-20T06:57:58.916Z,95064.41
2023-03-20T07:00:27.114Z,95064.66
2023-03-20T07:02:54.489Z,95059.50
2023-03-20T07:05:21.612Z,95048.25
2023-03-20T07:07:48.715Z,95051.75
2023-03-20T07:10:17.226Z,95048.59
2023-03-20T07:12:51.082Z,95063.41
2023-03-20T07:15:20.111Z,95058.22
2023-03-20T07:17:47.812Z,95068.00
2023-03-20T07:20:15.152Z,95059.75
2023-03-20T07:22:42.707Z,95067.09
2023-03-20T07:25:16.976Z,95054.78
2023-03-20T07:27:50.504Z,95069.81
2023-03-20T07:30:20.872Z,95065.59
2023-03-20T07:32:49.116Z,95057.94
2023-03-20T07:35:16.422Z,95067.06
2023-03-20T07:37:44.524Z,95069.28
2023-03-20T07:40:12.351Z,95072.94
2023-03-20T07:42:53.638Z,95080.03
2023-03-20T07:45:57.523Z,95078.19
2023-03-20T07:48:24.534Z,95076.00
2023-03-20T07:50:51.670Z,95079.44
2023-03-20T07:53:18.601Z,95082.25
2023-03-20T07:55:48.690Z,95078.19
2023-03-20T07:58:15.601Z,95086.09
2023-03-20T08:00:42.565Z,95083.69
2023-03-20T08:03:10.211Z,95089.53
2023-03-20T08:05:38.184Z,95091.53
2023-03-20T08:08:05.650Z,95094.56
2023-03-20T08:10:32.802Z,95093.97
2023-03-20T08:12:59.902Z,95085.41
2023-03-20T08:15:26.985Z,95083.34
2023-03-20T08:17:53.890Z,95087.16
2023-03-20T08:20:21.689Z,95087.16
2023-03-20T08:22:49.716Z,95083.22
2023-03-20T08:25:17.183Z,95080.19
2023-03-20T08:27:44.192Z,95087.66
2023-03-20T08:30:12.991Z,95087.03
2023-03-20T08:32:40.241Z,95086.19
2023-03-20T08:35:16.360Z,95089.81
2023-03-20T08:37:49.300Z,95089.38
2023-03-20T08:40:16.885Z,95096.28
2023-03-20T08:42:43.969Z,95097.84
2023-03-20T08:45:11.668Z,95089.13
2023-03-20T08:47:40.604Z,95090.50
2023-03-20T08:50:08.500Z,95095.38
2023-03-20T08:52:36.286Z,95088.22
2023-03-20T08:55:03.776Z,95089.16
2023-03-20T08:57:30.826Z,95090.16
2023-03-20T08:59:57.740Z,95090.09
2023-03-20T09:02:24.810Z,95096.13
2023-03-20T09:04:51.845Z,95098.50
2023-03-20T09:07:18.898Z,95085.03
2023-03-20T09:09:46.001Z,95105.47
2023-03-20T09:12:12.859Z,95095.00
2023-03-20T09:14:39.920Z,95097.56
2023-03-20T09:17:06.980Z,95099.38
2023-03-20T09:19:34.845Z,95081.75
2023-03-20T09:22:01.877Z,95082.19
2023-03-20T09:24:29.253Z,95077.94
2023-03-20T09:26:56.194Z,95079.78
2023-03-20T09:29:23.282Z,95069.81
2023-03-20T09:31:50.374Z,95073.66
2023-03-20T09:34:17.293Z,95080.63
2023-03-20T09:36:44.375Z,95080.16
2023-03-20T09:39:11.705Z,95068.66
2023-03-20T09:41:53.271Z,95068.94
2023-03-20T09:45:01.865Z,95065.97
2023-03-20T09:47:52.442Z,95071.53
2023-03-20T09:50:44.734Z,95059.78
2023-03-20T09:53:18.124Z,95069.94
2023-03-20T09:55:45.375Z,95067.84
2023-03-20T09:58:21.104Z,95069.00
2023-03-20T10:00:48.272Z,95063.81
2023-03-20T10:03:25.010Z,95067.16
2023-03-20T10:06:03.489Z,95060.25
2023-03-20T10:08:36.531Z,95059.78
2023-03-20T10:11:23.530Z,95058.53
2023-03-20T10:14:21.863Z,95056.22
2023-03-20T10:17:29.385Z,95051.13
2023-03-20T10:20:14.555Z,95055.00
2023-03-20T10:22:56.594Z,95064.72
2023-03-20T10:25:38.404Z,95059.19
2023-03-20T10:28:13.900Z,95052.50
2023-03-20T10:31:04.990Z,95054.38
2023-03-20T10:33:43.961Z,95061.28
2023-03-20T10:36:50.169Z,95050.69
2023-03-20T10:39:43.067Z,95039.72
2023-03-20T10:42:31.222Z,95032.88
2023-03-20T10:45:06.828Z,95041.94
2023-03-20T10:47:39.203Z,95031.00
2023-03-20T10:50:14.765Z,95042.28
2023-03-20T10:52:42.383Z,95041.59
2023-03-20T10:55:30.807Z,95034.19
2023-03-20T10:58:12.139Z,95031.97
2023-03-20T11:00:39.163Z,95026.59
2023-03-20T11:03:08.138Z,95035.13
2023-03-20T11:05:36.980Z,95021.06
2023-03-20T11:08:07.449Z,95017.44
2023-03-20T11:10:37.261Z,95015.91
2023-03-20T11:13:41.919Z,95021.38
2023-03-20T11:16:41.203Z,95013.41
2023-03-20T11:19:11.984Z,95022.50
2023-03-20T11:21:58.253Z,95013.16
2023-03-20T11:24:41.364Z,95008.63
2023-03-20T11:27:19.198Z,95002.91
2023-03-20T11:29:50.940Z,94998.22
2023-03-20T11:32:45.594Z,94997.59
2023-03-20T11:35:26.461Z,94993.97
2023-03-20T11:38:15.408Z,94991.88
2023-03-20T11:40:42.411Z,95000.47
2023-03-20T11:43:21.800Z,94991.75
2023-03-20T11:46:00.768Z,94991.34
2023-03-20T11:48:45.428Z,94997.78
2023-03-20T11:51:22.818Z,94983.84
2023-03-20T11:53:49.614Z,94988.97
2023-03-20T11:56:30.850Z,94985.75
2023-03-20T11:59:09.373Z,94988.38
2023-03-20T12:01:52.893Z,94977.09
2023-03-20T12:04:37.620Z,94969.13
2023-03-20T12:07:18.161Z,94972.88
2023-03-20T12:10:03.066Z,94970.47
2023-03-20T12:12:55.135Z,94967.25
2023-03-20T12:15:34.248Z,94974.81
2023-03-20T12:18:16.838Z,94965.50
2023-03-20T12:20:48.434Z,94962.53
2023-03-20T12:23:43.464Z,94963.06
2023-03-20T12:26:16.116Z,94964.25
2023-03-20T12:29:11.333Z,94961.34
2023-03-20T12:31:52.549Z,94960.63
2023-03-20T12:34:29.189Z,94959.69
2023-03-20T12:36:59.227Z,94969.59
2023-03-20T12:39:34.278Z,94958.88
2023-03-20T12:42:28.938Z,94964.19
2023-03-20T12:45:24.176Z,94955.59
2023-03-20T12:48:12.998Z,94959.81
2023-03-20T12:51:05.784Z,94947.69
2023-03-20T12:53:44.856Z,94940.81
2023-03-20T12:56:27.859Z,94937.69
2023-03-20T12:59:11.894Z,94937.00
2023-03-20T13:01:55.584Z,94930.09
2023-03-20T13:05:18.159Z,94934.25
2023-03-20T13:08:03.345Z,94938.88
2023-03-20T13:10:41.609Z,94944.03
2023-03-20T13:13:57.338Z,94939.19
2023-03-20T13:17:00.380Z,94947.16
2023-03-20T13:19:42.230Z,94947.41
2023-03-20T13:22:55.746Z,94943.38
2023-03-20T13:26:36.741Z,94945.94
2023-03-20T13:29:27.897Z,94938.78
2023-03-20T13:32:27.052Z,94941.47
2023-03-20T13:35:02.712Z,94942.59
2023-03-20T13:37:39.114Z,94947.41
2023-03-20T13:40:31.977Z,94950.28
2023-03-20T13:43:24.208Z,94954.44
2023-03-20T13:46:16.503Z,94944.03
2023-03-20T13:48:45.509Z,94948.78
2023-03-20T13:51:39.247Z,94953.25
2023-03-20T13:54:27.860Z,94963.28
2023-03-20T13:57:08.172Z,94961.59
2023-03-20T13:59:43.697Z,94959.19
2023-03-20T14:02:42.033Z,94957.22
2023-03-20T14:05:19.172Z,94956.97
2023-03-20T14:07:49.395Z,94963.94
2023-03-20T14:10:22.403Z,94957.41
2023-03-20T14:12:51.017Z,94957.50
2023-03-20T14:15:20.356Z,94960.53
2023-03-20T14:17:50.166Z,94956.91
2023-03-20T14:20:35.936Z,94954.84
2023-03-20T14:23:04.729Z,94956.59
2023-03-20T14:25:41.796Z,94953.34
2023-03-20T14:28:11.701Z,94959.56
2023-03-20T14:30:41.407Z,94966.59
2023-03-20T14:33:16.332Z,94963.69
2023-03-20T14:36:19.401Z,94964.19
2023-03-20T14:39:22.618Z,94956.44
2023-03-20T14:41:55.456Z,94960.59
2023-03-20T14:44:38.774Z,94969.25
2023-03-20T14:47:56.087Z,94973.69
2023-03-20T14:50:41.402Z,94991.31
2023-03-20T14:53:14.917Z,94992.03
2023-03-20T14:56:13.407Z,94988.44
2023-03-20T14:58:40.828Z,95003.59
2023-03-20T15:01:19.077Z,95001.34
2023-03-20T15:04:20.876Z,94997.94
2023-03-20T15:07:00.220Z,95009.53
2023-03-20T15:09:30.233Z,95008.50
2023-03-20T15:12:04.417Z,95024.00
2023-03-20T15:14:45.469Z,95026.91
2023-03-20T15:17:27.147Z,95017.28
2023-03-20T15:20:15.402Z,95017.63
2023-03-20T15:22:58.014Z,95021.22
2023-03-20T15:25:43.815Z,95023.19
2023-03-20T15:28:24.592Z,95025.72
2023-03-20T15:30:56.738Z,95019.91
2023-03-20T15:33:27.777Z,95021.38
2023-03-20T15:35:55.739Z,95021.22
2023-03-20T15:38:28.413Z,95008.69
2023-03-20T15:40:55.582Z,95003.00
2023-03-20T15:43:25.607Z,95003.41
2023-03-20T15:46:14.177Z,95007.06
2023-03-20T15:48:48.736Z,95010.94
2023-03-20T15:51:17.205Z,94998.16
2023-03-20T15:53:47.981Z,94999.16
2023-03-20T15:56:19.717Z,94998.59
2023-03-20T15:58:52.213Z,95002.81
2023-03-20T16:01:22.371Z,94996.53
2023-03-20T16:03:50.430Z,94997.75
2023-03-20T16:06:21.840Z,95000.78
2023-03-20T16:09:06.595Z,95000.56
2023-03-20T16:11:42.874Z,95000.34
2023-03-20T16:14:26.574Z,94998.75
2023-03-20T16:16:56.636Z,95007.25
2023-03-20T16:19:27.293Z,95001.78
2023-03-20T16:21:59.468Z,94996.50
2023-03-20T16:24:35.464Z,95002.16
2023-03-20T16:27:10.446Z,95004.38
2023-03-20T16:29:42.982Z,94999.28
2023-03-20T16:32:36.291Z,94998.25
2023-03-20T16:35:18.319Z,95002.28
2023-03-20T16:37:56.709Z,95001.44
2023-03-20T16:40:37.707Z,95005.91
2023-03-20T16:43:17.256Z,95009.72
2023-03-20T16:45:58.320Z,95001.59
2023-03-20T16:48:33.553Z,95006.06
2023-03-20T16:51:30.779Z,95013.38
2023-03-20T16:54:01.407Z,95011.19
2023-03-20T16:56:40.425Z,95012.97
2023-03-20T16:59:17.644Z,95011.41
2023-03-20T17:01:51.970Z,95018.69
2023-03-20T17:04:37.825Z,95019.53
2023-03-20T17:07:19.203Z,95014.66
2023-03-20T17:10:15.787Z,95019.59
2023-03-20T17:12:46.709Z,95021.59
2023-03-20T17:15:20.520Z,95019.97
2023-03-20T17:17:47.824Z,95023.41
2023-03-20T17:20:28.153Z,95032.16
2023-03-20T17:22:55.188Z,95035.00
2023-03-20T17:25:22.230Z,95029.72
2023-03-20T17:27:49.176Z,95031.97
2023-03-20T17:30:20.941Z,95036.41
2023-03-20T17:32:48.141Z,95035.63
2023-03-20T17:35:15.414Z,95036.63
2023-03-20T17:37:42.908Z,95046.34
2023-03-20T17:40:22.676Z,95042.28
2023-03-20T17:42:49.632Z,95039.25
2023-03-20T17:45:20.471Z,95039.25
2023-03-20T17:47:48.081Z,95042.72
2023-03-20T17:50:27.281Z,95046.78
2023-03-20T17:52:54.989Z,95045.97
2023-03-20T17:55:22.584Z,95048.81
2023-03-20T17:57:49.546Z,95044.56
2023-03-20T18:00:23.990Z,95040.53
2023-03-20T18:02:51.165Z,95035.63
2023-03-20T18:05:18.255Z,95037.66
2023-03-20T18:07:45.265Z,95040.09
2023-03-20T18:10:31.781Z,95039.91
2023-03-20T18:13:00.226Z,95034.00
2023-03-20T18:15:27.687Z,95034.84
2023-03-20T18:17:55.110Z,95035.06
2023-03-20T18:20:31.949Z,95033.25
2023-03-20T18:22:59.349Z,95031.22
2023-03-20T18:25:26.368Z,95036.28
2023-03-20T18:27:55.489Z,95043.19
2023-03-20T18:30:28.837Z,95052.06
2023-03-20T18:32:56.084Z,95045.59
2023-03-20T18:35:22.996Z,95054.50
2023-03-20T18:37:49.996Z,95055.72
2023-03-20T18:40:23.048Z,95056.31
2023-03-20T18:42:49.968Z,95050.84
2023-03-20T18:45:17.157Z,95057.50
2023-03-20T18:47:44.524Z,95051.84
2023-03-20T18:50:27.220Z,95053.47
2023-03-20T18:52:56.634Z,95057.47
2023-03-20T18:55:27.008Z,95051.22
2023-03-20T18:57:54.520Z,95058.50
2023-03-20T19:00:35.862Z,95065.16
2023-03-20T19:03:03.743Z,95059.66
2023-03-20T19:05:31.339Z,95062.28
2023-03-20T19:07:59.854Z,95060.03
2023-03-20T19:10:36.398Z,95050.72
2023-03-20T19:13:06.104Z,95051.28
2023-03-20T19:15:36.692Z,95050.25
2023-03-20T19:18:12.058Z,95051.66
2023-03-20T19:20:43.406Z,95050.81
2023-03-20T19:23:14.127Z,95053.38
2023-03-20T19:25:44.642Z,95048.91
2023-03-20T19:28:21.748Z,95051.94
2023-03-20T19:30:51.040Z,95050.53
2023-03-20T19:33:18.372Z,95051.72
2023-03-20T19:36:02.431Z,95043.59
2023-03-20T19:38:30.915Z,95056.50
2023-03-20T19:40:59.226Z,95054.28
2023-03-20T19:43:28.810Z,95057.47
2023-03-20T19:45:58.989Z,95052.41
2023-03-20T19:48:51.491Z,95050.38
2023-03-20T19:51:29.476Z,95050.31
2023-03-20T19:53:56.593Z,95064.66
2023-03-20T19:56:24.145Z,95047.84
2023-03-20T19:58:52.198Z,95054.28
2023-03-20T20:01:23.082Z,95050.88
2023-03-20T20:03:53.293Z,95058.31
2023-03-20T20:06:22.313Z,95059.94
2023-03-20T20:08:50.669Z,95055.88
2023-03-20T20:11:19.741Z,95052.63
2023-03-20T20:14:07.255Z,95064.13
2023-03-20T20:16:39.540Z,95054.63
2023-03-20T20:19:07.282Z,95049.38
2023-03-20T20:24:21.774Z,95059.00
2023-03-20T20:27:07.070Z,95051.53
2023-03-20T20:29:42.248Z,95061.03
2023-03-20T20:32:09.182Z,95062.03
2023-03-20T20:38:19.775Z,95066.84
2023-03-20T20:40:17.096Z,95063.16
2023-03-20T20:42:47.543Z,95067.59
2023-03-20T20:45:15.275Z,95070.03
2023-03-20T20:47:44.912Z,95071.88
2023-03-20T20:50:14.617Z,95069.41
2023-03-20T20:52:42.751Z,95073.84
2023-03-20T20:55:22.603Z,95071.03
2023-03-20T20:57:53.026Z,95065.78
2023-03-20T21:00:27.495Z,95071.88
2023-03-20T21:02:58.603Z,95060.53
2023-03-20T21:05:26.898Z,95058.91
2023-03-20T21:07:54.421Z,95061.28
2023-03-20T21:10:22.221Z,95059.06
2023-03-20T21:12:58.921Z,95058.81
2023-03-20T21:15:26.818Z,95070.47
2023-03-20T21:18:01.035Z,95067.41
2023-03-20T21:20:32.695Z,95075.25
2023-03-20T21:23:00.197Z,95065.56
2023-03-20T21:25:47.081Z,95066.13
2023-03-20T21:28:14.676Z,95069.31
2023-03-20T21:30:54.636Z,95068.06
2023-03-20T21:33:29.240Z,95064.63
2023-03-20T21:35:56.123Z,95057.94
2023-03-20T21:38:58.662Z,95055.06
2023-03-20T21:41:11.171Z,95058.69
2023-03-20T21:43:39.473Z,95062.28
2023-03-20T21:55:04.052Z,95059.03
2023-03-20T22:02:57.006Z,95052.34
2023-03-20T22:06:14.445Z,95051.34
2023-03-20T22:11:45.048Z,95049.34
2023-03-20T22:17:32.884Z,95045.63
2023-03-20T22:36:48.038Z,95042.16
2023-03-20T22:42:19.938Z,95042.78
2023-03-20T22:44:59.102Z,95032.88
2023-03-20T22:47:13.302Z,95031.91
2023-03-20T22:49:40.176Z,95033.31
2023-03-20T22:52:23.023Z,95035.38
2023-03-20T22:54:54.372Z,95031.97
2023-03-20T22:57:21.400Z,95023.69
2023-03-20T22:59:52.381Z,95031.75
2023-03-20T23:02:19.631Z,95038.63
2023-03-20T23:04:46.597Z,95040.28
2023-03-20T23:07:13.622Z,95040.44
2023-03-20T23:09:40.616Z,95035.81
2023-03-20T23:12:07.847Z,95031.13
2023-03-20T23:14:45.518Z,95041.63
2023-03-20T23:17:12.996Z,95030.91
2023-03-20T23:19:47.878Z,95035.16
2023-03-20T23:22:19.164Z,95027.47
2023-03-20T23:24:46.218Z,95030.91
2023-03-20T23:27:13.396Z,95034.31
2023-03-20T23:29:40.734Z,95024.84
2023-03-20T23:32:07.868Z,95029.06
2023-03-20T23:34:36.779Z,95026.88
2023-03-20T23:37:04.198Z,95020.66
2023-03-20T23:39:31.270Z,95026.13
2023-03-20T23:42:11.990Z,95016.69
2023-03-20T23:44:55.338Z,95023.00
2023-03-20T23:47:27.694Z,95019.97
2023-03-20T23:49:57.037Z,95022.25
2023-03-20T23:52:23.933Z,95013.97
2023-03-20T23:54:50.949Z,95014.81
2023-03-20T23:57:18.024Z,95010.00
2023-03-20T23:59:44.943Z,95013.47
